This is the latest recevied weather packets stored in our database for station/object ON4CDJ-13. If no packets are shown the sender has not sent any weather packets the latest 10 day(s).
| Time | Temp. | Humidity | Pressure | Rain* | Wind** | Luminosity | Snow |
|---|---|---|---|---|---|---|---|
| 1778110529 | 8.33° C | 87% | 1014.4 hPa | 0 mm | - | 0 W/m² | - |
| 1778106929 | 8.33° C | 87% | 1014.2 hPa | 0 mm | - | 0 W/m² | - |
| 1778105134 | 7.78° C | 85% | 1014 hPa | 0 mm | - | 0 W/m² | - |
| 1778103337 | 7.78° C | 84% | 1013.9 hPa | 0 mm | - | 0 W/m² | - |
| 1778102152 | 7.78° C | 82% | 1013.7 hPa | 0 mm | - | 0 W/m² | - |
| 1778100920 | 8.33° C | 81% | 1013.6 hPa | 0 mm | - | 0 W/m² | - |
| 1778097334 | 11.11° C | 67% | 1013.2 hPa | 0 mm | - | 0 W/m² | - |
| 1778091955 | 12.78° C | 62% | 1012.2 hPa | 0 mm | - | 18 W/m² | - |
| 1778088926 | 13.33° C | 65% | 1011.2 hPa | 0 mm | - | 8 W/m² | - |
| 1778083533 | 13.33° C | 70% | 1011 hPa | 0 mm | - | 63 W/m² | - |
| 1778082355 | 13.33° C | 64% | 1011.1 hPa | 0 mm | - | 38 W/m² | - |
| 1778081123 | 13.33° C | 62% | 1011 hPa | 0 mm | - | 68 W/m² | - |
| 1778073931 | 14.44° C | 73% | 1010.8 hPa | 0 mm | - | 236 W/m² | - |
| 1778071571 | 15° C | 68% | 1010.5 hPa | 0 mm | - | 297 W/m² | - |
| 1778067360 | 13.33° C | 74% | 1010.7 hPa | 0 mm | - | 69 W/m² | - |
| 1778061926 | 12.78° C | 77% | 1010.6 hPa | 0 mm | - | 270 W/m² | - |
| 1778060744 | 12.22° C | 81% | 1010.6 hPa | 0 mm | - | 169 W/m² | - |
| 1778058335 | 11.67° C | 87% | 1010.5 hPa | 0 mm | - | 212 W/m² | - |
| 1778056534 | 10.56° C | 90% | 1010.4 hPa | 0 mm | - | 176 W/m² | - |
| 1778045767 | 10.56° C | 78% | 1009.5 hPa | 0 mm | - | 19 W/m² | - |
| 1778040953 | 9.44° C | 81% | 1009.6 hPa | 0 mm | - | 2 W/m² | - |
| 1778034346 | 8.89° C | 82% | 1010.1 hPa | 0 mm | - | 0 W/m² | - |
| 1778031365 | 8.89° C | 82% | 1010.2 hPa | 0 mm | - | 0 W/m² | - |
| 1778030744 | 8.89° C | 83% | 1010.3 hPa | 0 mm | - | 0 W/m² | - |
| 1778028957 | 8.89° C | 81% | 1010.4 hPa | 0 mm | - | 0 W/m² | - |
* Rain latest hour (hover to see other rain measurements)
** Current wind speed in m/s (hover to see current wind gust speed)